ワガドゥグー の空港の天気 - METARとTAF

ワガドゥグー空港 ( DFFD / OUA ) - ブルキナファソ ワガドゥグー
飛行場実況気象(Metar)
観測時間07/20 10:00 GMT (07/20 10:00 UTC)
風向・風速南西 4m/s
視程10km以上
天気現象
少しの雲 雲底高度 300m
全天の4割程度の雲 雲底高度 610m
気温27℃
湿度79%
気圧1015hPa
METARDFFD 201000Z 22008KT 190V260 9999 FEW010 SCT020 27/23 Q1015 NOSIG
過去の天気等 Google飛行場航空写真 Wunderground天気予報

過去48時間のMETAR

飛行場予報(TAF)
発表時間: 7/20 05:00 GMT (7/20 05:00 UTC)
予報対象時間: 20日6時 GMT ~ 21日12時 GMT
風向・風速南西 4m/s
視程10km以上
少しの雲 雲底高度 610m
20日14時 GMT ~ 21日2時 GMT に 確率 30% で一時的に
視程4000m
天気現象雷雨
全天の4割程度の雲 雲底高度 610m
少しの積乱雲 雲底高度 1010m
TAF DFFD 200500Z 2006/2112 22008KT 9999 FEW020
PROB30 TEMPO 2014/2102 4000 TSRA SCT020 FEW033CB